Time;durP1;ratioP1;P1;durP2;ratioP2;P2;SDS_P1;SDS_P2;PMS_P1;PMS_P2;Temp;Humidity;BMP_temperature;BMP_pressure;BME280_temperature;BME280_humidity;BME280_pressure;Samples;Min_cycle;Max_cycle;Signal;HPM_P1;HPM_P2
2021/12/26 00:00:27;;;;;;;6.83;6.13;;;;;;;4.20;100.00;93561.94;4928670;29;20194;-72
2021/12/26 00:02:53;;;;;;;6.70;5.90;;;;;;;4.19;100.00;93565.09;4955160;28;20253;-72
2021/12/26 00:05:20;;;;;;;6.77;6.07;;;;;;;4.14;100.00;93569.13;4968291;28;20189;-72
2021/12/26 00:07:46;;;;;;;7.13;6.43;;;;;;;4.09;100.00;93560.88;4973270;28;20211;-72
2021/12/26 00:10:16;;;;;;;9.90;6.60;;;;;;;4.01;100.00;93562.34;4935144;28;20194;-72
2021/12/26 00:12:45;;;;;;;7.13;6.43;;;;;;;4.09;100.00;93566.28;4934799;29;20221;-72
2021/12/26 00:15:10;;;;;;;9.33;7.37;;;;;;;4.14;100.00;93554.88;4933118;29;20194;-73
2021/12/26 00:17:36;;;;;;;9.90;7.13;;;;;;;4.14;100.00;93565.69;4963856;28;20315;-72
2021/12/26 00:20:05;;;;;;;9.60;7.10;;;;;;;4.10;100.00;93552.31;4952108;29;20210;-72
2021/12/26 00:22:31;;;;;;;12.07;7.73;;;;;;;4.04;100.00;93564.19;4953713;28;20217;-72
2021/12/26 00:24:57;;;;;;;9.17;7.73;;;;;;;4.06;100.00;93554.41;4944243;28;20194;-72
2021/12/26 00:27:23;;;;;;;10.20;7.53;;;;;;;4.00;100.00;93560.84;4934461;29;20261;-72
2021/12/26 00:29:49;;;;;;;10.03;7.50;;;;;;;4.07;100.00;93552.47;4949273;28;20206;-72
2021/12/26 00:32:16;;;;;;;8.60;7.03;;;;;;;3.97;100.00;93548.97;4947440;28;20220;-72
2021/12/26 00:34:42;;;;;;;7.77;6.93;;;;;;;3.93;100.00;93558.44;4965049;28;20231;-72
2021/12/26 00:37:08;;;;;;;8.67;7.77;;;;;;;3.94;100.00;93558.00;4955334;28;20267;-72
2021/12/26 00:39:34;;;;;;;10.17;8.40;;;;;;;3.90;100.00;93562.03;4943534;28;20209;-72
2021/12/26 00:42:01;;;;;;;13.43;7.17;;;;;;;3.96;100.00;93561.00;4968164;28;20205;-72
2021/12/26 00:44:27;;;;;;;15.90;8.73;;;;;;;3.91;100.00;93560.84;4954102;28;20301;-72
2021/12/26 00:46:53;;;;;;;9.70;7.70;;;;;;;3.95;100.00;93556.06;4935243;29;20193;-72
2021/12/26 00:49:23;;;;;;;15.40;8.27;;;;;;;3.87;100.00;93558.28;4951865;29;20190;-72
2021/12/26 00:51:50;;;;;;;20.13;8.23;;;;;;;3.81;100.00;93556.59;4951828;28;20751;-72
2021/12/26 00:54:17;;;;;;;15.60;8.67;;;;;;;3.75;100.00;93575.34;4936558;29;20213;-72
2021/12/26 00:56:43;;;;;;;22.77;8.10;;;;;;;3.78;100.00;93565.59;4934852;29;20202;-72
2021/12/26 00:59:09;;;;;;;23.27;9.57;;;;;;;3.68;100.00;93552.06;4917517;29;20241;-72
2021/12/26 01:01:35;;;;;;;11.23;8.90;;;;;;;3.70;100.00;93565.88;4936261;28;20226;-72
2021/12/26 01:04:01;;;;;;;10.70;8.10;;;;;;;3.75;100.00;93574.59;4952439;29;20182;-72
2021/12/26 01:06:28;;;;;;;11.93;7.97;;;;;;;3.72;100.00;93573.53;4935694;28;20190;-72
2021/12/26 01:08:55;;;;;;;10.77;8.13;;;;;;;3.81;100.00;93560.06;4951855;29;20662;-72
2021/12/26 01:11:35;;;;;;;10.47;7.90;;;;;;;3.73;100.00;93559.59;4931410;29;20620;-72
2021/12/26 01:14:05;;;;;;;10.70;8.70;;;;;;;3.85;100.00;93560.69;4933108;29;20671;-72
2021/12/26 01:16:53;;;;;;;9.07;7.47;;;;;;;3.65;100.00;93557.59;4945611;29;20178;-72
2021/12/26 01:19:26;;;;;;;8.40;7.33;;;;;;;3.64;100.00;93564.22;4934049;29;20751;-72
2021/12/26 01:21:52;;;;;;;7.77;6.70;;;;;;;3.72;100.00;93565.44;4952907;28;20241;-72
2021/12/26 01:24:19;;;;;;;11.10;6.70;;;;;;;3.67;100.00;93558.69;4920204;29;20671;-72
2021/12/26 01:26:44;;;;;;;8.67;6.57;;;;;;;3.67;100.00;93566.78;4951183;29;20216;-72
2021/12/26 01:29:18;;;;;;;7.23;6.30;;;;;;;3.65;100.00;93576.50;4932467;29;20800;-72
2021/12/26 01:31:44;;;;;;;6.77;6.07;;;;;;;3.60;100.00;93575.16;4953447;28;20319;-72
2021/12/26 01:34:35;;;;;;;8.13;6.07;;;;;;;3.60;100.00;93577.84;4963209;28;20732;-72
2021/12/26 01:37:16;;;;;;;7.43;6.00;;;;;;;3.65;100.00;93577.25;4946815;29;20210;-72
2021/12/26 01:39:48;;;;;;;7.60;6.27;;;;;;;3.65;100.00;93582.66;4949009;29;20567;-72
2021/12/26 01:42:23;;;;;;;6.90;6.13;;;;;;;3.62;100.00;93586.25;4946677;28;20907;-72
2021/12/26 01:45:11;;;;;;;7.70;6.43;;;;;;;3.78;100.00;93581.81;4918538;29;20669;-72
2021/12/26 01:48:02;;;;;;;6.27;5.63;;;;;;;3.64;100.00;93573.06;4939723;29;20616;-72
2021/12/26 01:50:30;;;;;;;7.40;6.23;;;;;;;3.59;100.00;93579.06;4952056;29;20474;-72
2021/12/26 01:52:57;;;;;;;8.73;5.97;;;;;;;3.63;100.00;93578.91;4952164;28;20210;-72
2021/12/26 01:55:26;;;;;;;5.77;5.07;;;;;;;3.65;100.00;93581.91;4951692;29;20570;-72
2021/12/26 01:57:56;;;;;;;6.20;5.03;;;;;;;3.60;100.00;93574.38;4934206;29;20237;-72
2021/12/26 02:00:25;;;;;;;7.53;5.67;;;;;;;3.51;100.00;93556.22;4951062;29;20606;-72
2021/12/26 02:02:50;;;;;;;5.30;4.70;;;;;;;3.51;100.00;93574.38;4959277;28;20217;-71
2021/12/26 02:05:18;;;;;;;6.93;5.30;;;;;;;3.54;100.00;93576.94;4967096;28;20204;-72
2021/12/26 02:07:45;;;;;;;5.93;5.33;;;;;;;3.59;100.00;93576.34;4954656;28;20236;-71
2021/12/26 02:10:10;;;;;;;6.70;5.60;;;;;;;3.48;100.00;93572.53;4959570;28;20198;-72
2021/12/26 02:12:36;;;;;;;6.90;5.67;;;;;;;3.55;100.00;93588.47;4932420;29;20207;-72
2021/12/26 02:15:03;;;;;;;5.93;5.33;;;;;;;3.44;100.00;93570.00;4932131;29;20198;-72
2021/12/26 02:17:38;;;;;;;6.40;5.20;;;;;;;3.47;100.00;93565.66;4966134;28;20229;-72
2021/12/26 02:23:12;;;;;;;8.10;5.77;;;;;;;3.47;100.00;93571.81;4935643;29;20238;-72
2021/12/26 02:28:12;;;;;;;6.10;5.37;;;;;;;3.42;100.00;93567.00;4935868;29;20350;-72
2021/12/26 02:30:39;;;;;;;6.27;5.07;;;;;;;3.43;100.00;93559.63;4935151;29;20198;-72
2021/12/26 02:33:08;;;;;;;6.13;5.50;;;;;;;3.43;100.00;93568.47;4946916;29;20209;-72
2021/12/26 02:35:34;;;;;;;6.43;5.40;;;;;;;3.43;100.00;93565.78;4972130;28;20264;-72
2021/12/26 02:38:01;;;;;;;6.60;4.80;;;;;;;3.29;100.00;93568.28;4973654;28;20232;-72
2021/12/26 02:40:28;;;;;;;9.90;5.73;;;;;;;3.25;100.00;93557.63;4924812;28;20205;-72
2021/12/26 02:42:54;;;;;;;8.20;5.90;;;;;;;3.21;100.00;93551.59;4973836;28;20216;-72
2021/12/26 02:45:20;;;;;;;6.23;5.20;;;;;;;3.18;100.00;93554.44;4952743;29;20239;-72
2021/12/26 02:47:48;;;;;;;5.63;5.07;;;;;;;3.32;100.00;93564.69;4937415;29;20214;-72
2021/12/26 02:50:19;;;;;;;6.07;5.30;;;;;;;3.18;100.00;93563.28;4954386;29;20194;-72
2021/12/26 02:52:46;;;;;;;5.43;4.80;;;;;;;3.30;100.00;93562.44;4961222;28;20213;-72
2021/12/26 02:55:14;;;;;;;7.53;6.03;;;;;;;3.30;100.00;93573.22;4957519;28;20201;-72
2021/12/26 02:57:40;;;;;;;6.30;5.33;;;;;;;3.25;100.00;93557.63;4941451;29;20225;-72
2021/12/26 03:00:13;;;;;;;8.57;5.43;;;;;;;3.34;100.00;93570.41;4938081;29;20253;-72
2021/12/26 03:02:43;;;;;;;6.33;5.03;;;;;;;3.21;100.00;93567.03;4947291;28;20209;-72
2021/12/26 03:05:09;;;;;;;7.57;6.10;;;;;;;3.21;100.00;93577.81;4968459;28;20204;-71
2021/12/26 03:07:36;;;;;;;8.03;6.40;;;;;;;3.19;100.00;93567.47;4954239;28;20204;-72
2021/12/26 03:10:03;;;;;;;8.47;5.77;;;;;;;3.29;100.00;93569.00;4934785;29;20308;-72
2021/12/26 03:12:31;;;;;;;7.43;5.90;;;;;;;3.12;100.00;93567.72;4934892;29;20216;-72
2021/12/26 03:14:57;;;;;;;8.67;6.13;;;;;;;3.25;100.00;93575.75;4934804;29;20265;-72
2021/12/26 03:17:24;;;;;;;8.60;5.50;;;;;;;3.20;100.00;93570.91;4944331;29;20213;-72
2021/12/26 03:19:50;;;;;;;9.00;6.27;;;;;;;3.15;100.00;93569.56;4939413;28;20182;-72
2021/12/26 03:22:18;;;;;;;8.47;6.30;;;;;;;3.23;100.00;93568.09;4958850;28;20213;-71
2021/12/26 03:24:45;;;;;;;12.20;7.07;;;;;;;3.09;100.00;93567.88;4944831;28;20193;-71
2021/12/26 03:27:12;;;;;;;8.13;6.37;;;;;;;3.21;100.00;93569.72;4956459;28;20194;-72
2021/12/26 03:29:38;;;;;;;10.00;6.37;;;;;;;3.27;100.00;93582.22;4959818;28;20197;-71
2021/12/26 03:32:10;;;;;;;14.63;6.53;;;;;;;3.27;100.00;93571.41;4968694;28;20300;-72
2021/12/26 03:34:44;;;;;;;10.53;6.43;;;;;;;3.13;100.00;93566.53;4963140;28;20317;-71
2021/12/26 03:37:10;;;;;;;9.20;7.27;;;;;;;3.18;100.00;93574.06;4972910;28;20294;-72
2021/12/26 03:39:36;;;;;;;11.60;7.67;;;;;;;3.27;100.00;93582.22;4953880;28;20192;-72
2021/12/26 03:42:02;;;;;;;9.43;7.73;;;;;;;3.26;100.00;93583.38;4953538;28;20206;-71
2021/12/26 03:44:28;;;;;;;27.23;7.90;;;;;;;3.28;100.00;93581.00;4953876;29;20245;-72
2021/12/26 03:46:54;;;;;;;11.50;7.33;;;;;;;3.24;100.00;93582.34;4953011;29;20302;-72
2021/12/26 03:49:20;;;;;;;13.90;7.57;;;;;;;3.13;100.00;93573.88;4949592;28;20226;-72
2021/12/26 03:51:45;;;;;;;13.07;7.40;;;;;;;3.20;100.00;93574.38;4936568;28;20193;-72
2021/12/26 03:54:13;;;;;;;30.90;7.70;;;;;;;3.08;100.00;93566.38;4953296;29;20240;-72
2021/12/26 03:56:40;;;;;;;11.50;7.77;;;;;;;3.11;100.00;93585.13;4949108;28;20195;-72
2021/12/26 03:59:11;;;;;;;19.10;9.10;;;;;;;3.22;100.00;93580.09;4963666;28;20221;-72
2021/12/26 04:01:38;;;;;;;20.10;7.97;;;;;;;3.04;100.00;93571.13;4937797;28;20210;-72
2021/12/26 04:04:04;;;;;;;16.33;8.73;;;;;;;3.02;100.00;93587.75;4931841;28;20196;-72
2021/12/26 04:06:30;;;;;;;16.53;7.90;;;;;;;2.96;100.00;93576.03;4973520;28;20181;-72
2021/12/26 04:08:57;;;;;;;26.67;9.07;;;;;;;3.03;100.00;93580.41;4962671;28;20549;-72
2021/12/26 04:11:23;;;;;;;16.17;8.20;;;;;;;3.04;100.00;93576.50;4952391;29;20194;-72
2021/12/26 04:13:48;;;;;;;14.67;8.93;;;;;;;3.05;100.00;93583.44;4925434;29;20249;-72
2021/12/26 04:16:14;;;;;;;19.63;9.13;;;;;;;3.11;100.00;93584.34;4957296;28;20225;-72
2021/12/26 04:18:40;;;;;;;15.87;9.70;;;;;;;3.07;100.00;93581.06;4952421;29;20249;-72
2021/12/26 04:21:07;;;;;;;13.40;9.00;;;;;;;3.26;100.00;93588.03;4917789;29;20209;-73
2021/12/26 04:23:40;;;;;;;20.83;9.57;;;;;;;3.21;100.00;93575.13;4925675;29;20392;-72
2021/12/26 04:26:05;;;;;;;27.53;9.80;;;;;;;3.08;100.00;93574.44;4944842;29;20357;-72
2021/12/26 04:28:31;;;;;;;30.70;9.53;;;;;;;3.15;100.00;93576.91;4933088;29;20194;-72
2021/12/26 04:30:58;;;;;;;42.93;8.80;;;;;;;3.05;100.00;93580.72;4931369;29;20665;-72
2021/12/26 04:33:25;;;;;;;35.87;10.33;;;;;;;3.22;100.00;93582.03;4960441;28;20376;-73
2021/12/26 04:35:51;;;;;;;23.63;9.90;;;;;;;3.20;100.00;93576.31;4971933;28;20245;-72
2021/12/26 04:38:17;;;;;;;72.43;10.60;;;;;;;3.23;100.00;93583.53;4953088;28;20562;-73
2021/12/26 04:40:43;;;;;;;22.37;9.43;;;;;;;3.25;100.00;93579.19;4948724;28;20240;-74
2021/12/26 04:43:27;;;;;;;17.97;10.10;;;;;;;3.33;100.00;93583.13;4946852;28;20294;-72
2021/12/26 04:46:11;;;;;;;26.67;10.47;;;;;;;3.26;100.00;93588.03;4952399;29;20193;-72
2021/12/26 04:48:49;;;;;;;57.00;10.70;;;;;;;3.13;100.00;93588.13;4952017;29;20535;-72
2021/12/26 04:51:15;;;;;;;38.93;10.60;;;;;;;3.20;100.00;93585.16;4936441;29;20707;-72
2021/12/26 04:53:43;;;;;;;21.57;9.87;;;;;;;3.16;100.00;93587.22;4936095;29;20213;-72
2021/12/26 04:56:10;;;;;;;28.57;10.10;;;;;;;3.15;100.00;93582.28;4935489;29;20193;-72
2021/12/26 04:58:36;;;;;;;26.80;10.00;;;;;;;3.21;100.00;93604.78;4948434;29;20206;-72
2021/12/26 05:01:03;;;;;;;28.53;9.33;;;;;;;3.22;100.00;93590.13;4947361;29;20626;-72
2021/12/26 05:03:30;;;;;;;35.83;10.23;;;;;;;3.10;100.00;93589.00;4944406;28;20244;-72
2021/12/26 05:05:56;;;;;;;19.30;10.20;;;;;;;3.18;100.00;93587.56;4953113;28;20235;-73
2021/12/26 05:08:22;;;;;;;35.83;10.43;;;;;;;3.17;100.00;93593.38;4934235;29;20665;-72
2021/12/26 05:10:48;;;;;;;23.50;10.53;;;;;;;3.08;100.00;93590.63;4932776;29;20197;-72
2021/12/26 05:13:13;;;;;;;22.30;9.67;;;;;;;2.99;100.00;93577.84;4917653;29;20217;-72
2021/12/26 05:15:39;;;;;;;34.47;9.93;;;;;;;3.04;100.00;93590.75;4934156;29;20268;-72
2021/12/26 05:18:05;;;;;;;22.03;9.53;;;;;;;3.09;100.00;93584.06;4948134;29;20580;-72
2021/12/26 05:20:33;;;;;;;24.20;10.00;;;;;;;3.07;100.00;93592.56;4919574;29;20211;-72
2021/12/26 05:23:00;;;;;;;19.80;10.20;;;;;;;3.09;100.00;93594.84;4946301;28;20228;-72
2021/12/26 05:25:26;;;;;;;18.40;9.87;;;;;;;3.03;100.00;93588.50;4917572;29;20246;-72
2021/12/26 05:27:53;;;;;;;13.83;8.07;;;;;;;3.08;100.00;93591.41;4943528;29;20220;-73
2021/12/26 05:30:22;;;;;;;17.00;9.60;;;;;;;3.11;100.00;93595.13;4946483;29;20202;-72
2021/12/26 05:32:56;;;;;;;15.27;9.47;;;;;;;3.04;100.00;93598.09;4953133;28;20229;-72
2021/12/26 05:35:22;;;;;;;13.43;9.27;;;;;;;3.08;100.00;93593.34;4951533;28;20287;-72
2021/12/26 05:37:48;;;;;;;13.70;8.13;;;;;;;3.13;100.00;93606.25;4961803;28;20212;-72
2021/12/26 05:40:15;;;;;;;12.00;8.67;;;;;;;3.03;100.00;93602.75;4950731;28;20220;-72
2021/12/26 05:42:42;;;;;;;11.23;8.47;;;;;;;3.19;100.00;93604.50;4954925;28;20213;-72
2021/12/26 05:45:10;;;;;;;9.50;7.80;;;;;;;3.20;100.00;93600.59;4970986;28;20193;-72
2021/12/26 05:47:47;;;;;;;11.17;7.97;;;;;;;3.09;100.00;93595.59;4951075;28;20189;-72
2021/12/26 05:50:17;;;;;;;9.90;8.10;;;;;;;2.99;100.00;93594.03;4948418;29;20198;-72
2021/12/26 05:52:47;;;;;;;9.60;8.17;;;;;;;3.10;100.00;93602.50;4932815;29;20217;-72
2021/12/26 05:55:16;;;;;;;9.50;7.80;;;;;;;3.01;100.00;93588.19;4932132;29;20191;-73
2021/12/26 05:57:45;;;;;;;9.50;7.37;;;;;;;3.23;100.00;93591.63;4949674;29;20238;-72
2021/12/26 06:00:14;;;;;;;11.03;8.50;;;;;;;3.19;100.00;93596.41;4933458;29;20362;-72
2021/12/26 06:02:42;;;;;;;9.73;8.00;;;;;;;3.24;100.00;93604.66;4958944;28;20276;-72
2021/12/26 06:05:10;;;;;;;10.00;7.60;;;;;;;3.19;100.00;93605.22;4961903;28;20290;-72
2021/12/26 06:07:36;;;;;;;8.77;7.43;;;;;;;3.13;100.00;93600.84;4954761;28;20194;-72
2021/12/26 06:10:05;;;;;;;8.30;6.90;;;;;;;3.09;100.00;93608.34;4972967;28;20201;-72
2021/12/26 06:12:33;;;;;;;9.70;7.83;;;;;;;3.14;100.00;93603.09;4957436;28;20300;-72
2021/12/26 06:14:58;;;;;;;10.10;7.87;;;;;;;3.27;100.00;93605.72;4935262;29;20229;-72
2021/12/26 06:17:25;;;;;;;10.17;8.30;;;;;;;3.26;100.00;93609.59;4951547;29;20221;-72
2021/12/26 06:20:14;;;;;;;11.00;7.80;;;;;;;3.27;100.00;93608.44;4955604;29;20205;-72
2021/12/26 06:22:47;;;;;;;9.57;7.27;;;;;;;3.29;100.00;93606.78;4938538;29;20710;-73
2021/12/26 06:25:31;;;;;;;9.17;7.17;;;;;;;3.27;100.00;93614.59;4955560;29;20268;-72
2021/12/26 06:28:20;;;;;;;8.03;6.97;;;;;;;3.30;100.00;93594.81;4953694;29;20202;-73
2021/12/26 06:31:06;;;;;;;9.93;7.90;;;;;;;3.34;100.00;93610.88;4932413;29;20201;-72
2021/12/26 06:33:51;;;;;;;9.80;7.93;;;;;;;3.37;100.00;93608.03;4962616;28;20691;-72
2021/12/26 06:36:35;;;;;;;10.30;7.63;;;;;;;3.34;100.00;93618.97;4954607;29;20206;-73
2021/12/26 06:39:19;;;;;;;9.30;7.63;;;;;;;3.29;100.00;93611.44;4938261;29;20229;-72
2021/12/26 06:42:03;;;;;;;9.43;8.03;;;;;;;3.36;100.00;93608.47;4966772;28;20209;-72
2021/12/26 06:44:55;;;;;;;10.40;7.97;;;;;;;3.56;100.00;93620.41;4959008;28;20219;-73
2021/12/26 06:47:35;;;;;;;9.23;7.40;;;;;;;3.38;100.00;93619.56;4953815;28;20198;-72
2021/12/26 06:50:03;;;;;;;9.17;7.63;;;;;;;3.37;100.00;93624.22;4903719;29;20210;-72
2021/12/26 06:52:28;;;;;;;8.83;7.17;;;;;;;3.38;100.00;93619.56;4935332;29;20420;-72
2021/12/26 06:54:54;;;;;;;9.47;7.33;;;;;;;3.47;100.00;93627.72;4952349;29;20201;-72
2021/12/26 06:57:20;;;;;;;10.20;7.83;;;;;;;3.23;100.00;93622.03;4950411;29;20214;-72
2021/12/26 06:59:45;;;;;;;10.07;8.00;;;;;;;3.48;100.00;93629.22;4936287;29;20210;-73
2021/12/26 07:02:11;;;;;;;9.67;7.30;;;;;;;3.41;100.00;93632.19;4955169;28;20273;-72
2021/12/26 07:04:47;;;;;;;9.73;8.00;;;;;;;3.39;100.00;93631.88;4961441;28;20189;-72
2021/12/26 07:07:20;;;;;;;10.50;8.20;;;;;;;3.34;100.00;93624.34;4949362;29;20281;-72
2021/12/26 07:09:46;;;;;;;9.30;7.20;;;;;;;3.23;100.00;93632.06;4936336;29;20182;-72
2021/12/26 07:12:14;;;;;;;8.80;7.00;;;;;;;3.27;100.00;93641.56;4938496;29;20217;-72
2021/12/26 07:14:51;;;;;;;9.63;7.53;;;;;;;3.20;100.00;93651.84;4953619;29;20198;-72
2021/12/26 07:17:17;;;;;;;8.17;7.00;;;;;;;3.25;100.00;93646.63;4952694;28;20198;-72
2021/12/26 07:19:47;;;;;;;8.03;6.93;;;;;;;3.32;100.00;93648.31;4953316;29;20198;-72
2021/12/26 07:22:33;;;;;;;11.77;6.47;;;;;;;3.30;100.00;93642.63;4955197;29;20504;-72
2021/12/26 07:25:01;;;;;;;8.73;6.97;;;;;;;3.33;100.00;93652.50;4921092;29;20207;-72
2021/12/26 07:27:27;;;;;;;8.33;6.90;;;;;;;3.48;100.00;93654.25;4934548;29;20628;-73
2021/12/26 07:30:12;;;;;;;8.33;6.50;;;;;;;3.50;100.00;93657.28;4950539;29;20197;-72
2021/12/26 07:32:37;;;;;;;7.87;6.97;;;;;;;3.46;100.00;93658.59;4961290;28;20223;-72
2021/12/26 07:35:04;;;;;;;7.97;6.33;;;;;;;3.44;100.00;93656.34;4953207;28;20203;-72
2021/12/26 07:37:29;;;;;;;8.30;6.83;;;;;;;3.42;100.00;93666.06;4939283;29;20689;-74
2021/12/26 07:39:56;;;;;;;8.20;6.60;;;;;;;3.44;100.00;93667.16;4950091;29;20614;-72
2021/12/26 07:42:22;;;;;;;7.73;6.40;;;;;;;3.48;100.00;93678.53;4952352;28;20220;-72
2021/12/26 07:45:17;;;;;;;7.00;6.13;;;;;;;3.46;100.00;93677.50;4950623;28;20229;-72
2021/12/26 07:47:53;;;;;;;7.80;6.27;;;;;;;3.47;100.00;93670.91;4918001;29;20187;-73
2021/12/26 07:50:18;;;;;;;6.63;5.80;;;;;;;3.53;100.00;93667.19;4918649;29;20792;-72
2021/12/26 07:53:08;;;;;;;6.57;5.80;;;;;;;3.40;100.00;93665.75;4935912;29;20560;-73
2021/12/26 07:55:52;;;;;;;6.73;5.73;;;;;;;3.56;100.00;93676.34;4955623;28;20274;-72
2021/12/26 07:58:50;;;;;;;6.87;5.83;;;;;;;3.32;100.00;93672.59;4937119;29;20269;-72
2021/12/26 08:01:34;;;;;;;7.97;6.07;;;;;;;3.37;100.00;93662.00;4938369;28;20190;-73
2021/12/26 08:04:19;;;;;;;7.97;6.03;;;;;;;3.37;100.00;93669.34;4965451;28;20193;-73
2021/12/26 08:07:10;;;;;;;7.10;5.43;;;;;;;3.50;100.00;93676.16;4951516;29;20741;-73
2021/12/26 08:09:36;;;;;;;6.03;5.43;;;;;;;3.56;100.00;93684.44;4919100;29;20195;-72
2021/12/26 08:12:02;;;;;;;6.10;5.47;;;;;;;3.45;100.00;93682.13;4936564;29;20581;-72
2021/12/26 08:14:28;;;;;;;6.27;5.67;;;;;;;3.63;100.00;93690.31;4937178;29;20586;-73
2021/12/26 08:16:56;;;;;;;5.70;5.10;;;;;;;3.84;100.00;93691.47;4924506;29;20673;-73
2021/12/26 08:19:22;;;;;;;8.30;6.10;;;;;;;3.75;100.00;93688.72;4935257;29;20281;-72
2021/12/26 08:21:51;;;;;;;5.80;5.20;;;;;;;3.71;100.00;93690.81;4953966;28;20609;-72
2021/12/26 08:24:17;;;;;;;6.43;5.63;;;;;;;3.66;100.00;93689.44;4948356;29;20194;-72
2021/12/26 08:26:43;;;;;;;6.93;5.30;;;;;;;3.67;100.00;93690.94;4937495;29;20198;-72
2021/12/26 08:29:09;;;;;;;6.63;5.70;;;;;;;3.69;100.00;93690.50;4950709;29;20190;-72
2021/12/26 08:31:34;;;;;;;6.00;5.40;;;;;;;3.62;100.00;93693.47;4954094;28;20224;-72
2021/12/26 08:34:00;;;;;;;7.83;5.23;;;;;;;3.64;100.00;93689.16;4965154;28;20196;-73
2021/12/26 08:36:26;;;;;;;6.77;5.77;;;;;;;3.72;100.00;93686.19;4972669;28;20192;-73
2021/12/26 08:38:52;;;;;;;6.43;5.33;;;;;;;3.78;100.00;93684.41;4933279;28;20365;-72
2021/12/26 08:41:17;;;;;;;6.00;5.23;;;;;;;3.80;100.00;93692.81;4933749;28;20283;-72
2021/12/26 08:43:43;;;;;;;6.60;5.63;;;;;;;3.92;100.00;93690.00;4937846;28;20214;-72
2021/12/26 08:46:11;;;;;;;5.90;5.30;;;;;;;3.93;100.00;93694.22;4951910;28;20212;-72
2021/12/26 08:48:37;;;;;;;6.33;5.30;;;;;;;3.80;100.00;93696.28;4953256;28;20186;-72
2021/12/26 08:51:03;;;;;;;5.87;5.27;;;;;;;3.81;100.00;93694.31;4952372;29;20190;-73
2021/12/26 08:53:29;;;;;;;6.17;5.20;;;;;;;3.81;100.00;93694.31;4951882;28;20230;-73
2021/12/26 08:55:57;;;;;;;5.90;5.23;;;;;;;4.05;100.00;93703.44;4936785;28;20198;-72
2021/12/26 08:58:26;;;;;;;6.53;5.57;;;;;;;3.97;100.00;93704.91;4933517;29;20222;-72
2021/12/26 09:00:52;;;;;;;6.20;5.10;;;;;;;4.05;100.00;93695.31;4933801;29;20199;-73
2021/12/26 09:03:18;;;;;;;5.80;4.90;;;;;;;4.00;100.00;93702.06;4962943;28;20259;-72
2021/12/26 09:05:44;;;;;;;9.30;6.90;;;;;;;3.97;100.00;93700.22;4954028;28;20186;-74
2021/12/26 09:08:12;;;;;;;8.07;6.00;;;;;;;4.18;100.00;93706.78;4951038;29;20225;-72
2021/12/26 09:10:39;;;;;;;6.07;5.43;;;;;;;4.14;100.00;93706.91;4952592;28;20221;-72
2021/12/26 09:13:06;;;;;;;6.53;5.07;;;;;;;4.31;100.00;93710.88;4935762;29;20216;-73
2021/12/26 09:15:33;;;;;;;5.60;5.00;;;;;;;4.31;100.00;93716.28;4952640;29;20190;-73
2021/12/26 09:17:59;;;;;;;5.67;5.00;;;;;;;4.35;100.00;93725.00;4943940;28;20712;-73
2021/12/26 09:20:26;;;;;;;7.30;6.53;;;;;;;4.23;100.00;93720.47;4952545;28;20216;-73
2021/12/26 09:22:52;;;;;;;5.57;4.93;;;;;;;4.23;100.00;93722.41;4952737;28;20248;-73
2021/12/26 09:25:18;;;;;;;5.13;4.63;;;;;;;4.16;100.00;93711.88;4949436;29;20201;-73
2021/12/26 09:27:43;;;;;;;5.13;4.60;;;;;;;4.25;100.00;93722.72;4950816;29;20201;-73
2021/12/26 09:30:11;;;;;;;5.63;4.83;;;;;;;4.66;100.00;93717.59;4915740;29;20198;-73
2021/12/26 09:32:37;;;;;;;6.27;5.10;;;;;;;5.25;100.00;93707.41;4954066;28;20220;-73
2021/12/26 09:35:04;;;;;;;12.83;9.60;;;;;;;5.45;100.00;93703.03;4969988;28;20189;-73
2021/12/26 09:37:31;;;;;;;9.73;8.20;;;;;;;5.55;100.00;93717.31;4949591;28;20312;-72
2021/12/26 09:40:06;;;;;;;6.70;5.97;;;;;;;6.34;100.00;93711.41;4962337;28;20200;-72
2021/12/26 09:42:33;;;;;;;5.00;4.50;;;;;;;6.75;100.00;93710.59;4965964;28;20217;-73
2021/12/26 09:45:00;;;;;;;3.93;3.53;;;;;;;7.25;100.00;93717.03;4955209;29;20264;-72
2021/12/26 09:47:28;;;;;;;3.67;3.37;;;;;;;7.17;100.00;93711.22;4954799;28;20202;-72
2021/12/26 09:49:53;;;;;;;3.40;3.10;;;;;;;7.31;100.00;93710.50;4955103;29;20193;-72
2021/12/26 09:52:19;;;;;;;3.70;3.30;;;;;;;6.13;100.00;93711.66;4956397;28;20281;-73
2021/12/26 09:54:45;;;;;;;3.87;3.33;;;;;;;5.57;100.00;93709.47;4955275;28;20563;-73
2021/12/26 09:57:11;;;;;;;4.10;3.70;;;;;;;5.39;100.00;93717.63;4937091;28;20843;-73
2021/12/26 09:59:38;;;;;;;4.47;4.07;;;;;;;5.22;100.00;93705.59;4937023;29;20193;-73
2021/12/26 10:02:10;;;;;;;4.67;3.93;;;;;;;5.24;100.00;93698.56;4946528;28;20581;-73
2021/12/26 10:04:39;;;;;;;4.93;4.40;;;;;;;5.14;100.00;93707.13;4957897;28;20667;-73
2021/12/26 10:07:11;;;;;;;4.03;3.70;;;;;;;5.05;100.00;93709.81;4950141;29;20554;-73
2021/12/26 10:09:46;;;;;;;4.63;3.67;;;;;;;5.10;100.00;93709.22;4951633;29;20195;-73
2021/12/26 10:12:13;;;;;;;4.87;4.40;;;;;;;4.99;100.00;93701.53;4956136;28;20209;-73
2021/12/26 10:14:43;;;;;;;5.47;4.03;;;;;;;4.97;100.00;93697.78;4955976;28;20213;-73
2021/12/26 10:17:10;;;;;;;4.17;3.50;;;;;;;4.72;100.00;93702.25;4953554;29;20194;-73
2021/12/26 10:19:39;;;;;;;4.87;4.27;;;;;;;4.85;100.00;93697.47;4955361;28;20198;-73
2021/12/26 10:22:06;;;;;;;4.97;4.47;;;;;;;4.87;100.00;93695.06;4955963;28;20205;-73
2021/12/26 10:24:34;;;;;;;7.37;4.10;;;;;;;5.06;100.00;93695.81;4948415;29;20209;-73
2021/12/26 10:27:11;;;;;;;4.97;4.50;;;;;;;5.13;100.00;93698.25;4936123;29;20202;-73
2021/12/26 10:29:42;;;;;;;5.00;4.50;;;;;;;5.08;100.00;93700.78;4926766;29;20190;-73
2021/12/26 10:32:12;;;;;;;4.50;4.03;;;;;;;5.03;100.00;93694.03;4956162;28;20221;-73
2021/12/26 10:34:46;;;;;;;4.63;4.13;;;;;;;5.05;100.00;93704.41;4966885;28;20538;-73
2021/12/26 10:37:18;;;;;;;7.57;4.70;;;;;;;4.92;100.00;93693.75;4932357;29;20202;-72
2021/12/26 10:39:52;;;;;;;4.47;4.07;;;;;;;4.76;100.00;93697.47;4934900;29;20199;-73
2021/12/26 10:42:22;;;;;;;4.20;3.83;;;;;;;4.73;100.00;93703.75;4970611;28;20247;-72
2021/12/26 10:44:59;;;;;;;3.80;3.40;;;;;;;4.67;100.00;93700.16;4965171;28;20280;-73
2021/12/26 10:47:28;;;;;;;3.40;3.10;;;;;;;4.73;100.00;93689.50;4934336;29;20281;-73
2021/12/26 10:49:56;;;;;;;3.80;3.50;;;;;;;4.80;100.00;93698.06;4936260;29;20226;-73
2021/12/26 10:52:30;;;;;;;3.27;2.97;;;;;;;4.88;100.00;93683.06;4935055;29;20213;-73
2021/12/26 10:55:06;;;;;;;3.07;2.87;;;;;;;4.81;100.00;93693.41;4944055;29;20222;-73
2021/12/26 10:57:41;;;;;;;5.47;3.23;;;;;;;4.89;100.00;93681.84;4952831;29;20248;-73
2021/12/26 11:00:14;;;;;;;3.43;3.13;;;;;;;5.02;100.00;93684.41;4923097;29;20249;-73
2021/12/26 11:02:53;;;;;;;3.67;3.07;;;;;;;5.11;100.00;93697.19;4970098;28;20252;-73
2021/12/26 11:05:31;;;;;;;1.90;1.80;;;;;;;4.99;100.00;93681.88;4963554;28;20656;-73
2021/12/26 11:08:01;;;;;;;2.10;1.90;;;;;;;5.07;100.00;93685.75;4942606;28;20198;-73
2021/12/26 11:10:37;;;;;;;2.00;1.80;;;;;;;5.12;100.00;93679.75;4918478;29;20273;-72
2021/12/26 11:13:06;;;;;;;1.87;1.77;;;;;;;4.88;100.00;93660.66;4936165;29;20289;-72
2021/12/26 11:15:38;;;;;;;1.70;1.60;;;;;;;5.01;100.00;93665.91;4934010;28;20189;-73
2021/12/26 11:18:14;;;;;;;2.17;1.97;;;;;;;4.89;100.00;93671.03;4966712;28;20212;-73
2021/12/26 11:20:47;;;;;;;2.10;1.90;;;;;;;4.99;100.00;93679.16;4961215;28;20208;-72
2021/12/26 11:23:16;;;;;;;2.40;2.20;;;;;;;5.12;100.00;93680.50;4955149;28;20272;-73
2021/12/26 11:25:59;;;;;;;2.60;2.13;;;;;;;5.21;100.00;93682.47;4949479;29;20280;-73
2021/12/26 11:28:28;;;;;;;2.70;2.40;;;;;;;5.26;100.00;93671.75;4918841;29;20190;-73
2021/12/26 11:31:11;;;;;;;2.23;2.03;;;;;;;5.30;100.00;93671.59;4953351;29;20205;-73
2021/12/26 11:33:37;;;;;;;1.73;1.63;;;;;;;5.33;100.00;93668.75;4953372;28;20285;-73
2021/12/26 11:36:06;;;;;;;1.33;1.23;;;;;;;5.35;100.00;93671.75;4950945;29;20289;-73
2021/12/26 11:38:34;;;;;;;1.33;1.23;;;;;;;5.25;100.00;93664.84;4946108;29;20221;-73
2021/12/26 11:41:36;;;;;;;1.73;1.63;;;;;;;5.34;100.00;93664.09;4952999;29;20288;-73
2021/12/26 11:44:55;;;;;;;2.07;1.60;;;;;;;5.46;100.00;93663.94;4935378;29;20754;-73
2021/12/26 11:48:20;;;;;;;1.20;1.10;;;;;;;5.49;100.00;93668.44;4954043;28;20202;-73
2021/12/26 11:51:19;;;;;;;1.03;1.00;;;;;;;5.56;100.00;93661.94;4933835;29;20613;-73